Druid Hills, Georgia
Current Conditions -  °F | °C
As of 9:53 PM on Saturday 22 Nov 2014 (Local Time) from KPDK Reporting Station
Overcast Overcast  
Wind Chill: 11°   Ceiling: 2900
Heat Index: 11°   Visibility: 10mi
Dew Point: -4°   Wind: 3mph
Humidity: 35%   Direction: 90°E
Pressure: 30.25"   Gusts: NA
Location:  33.7788°N, 84.3361°W
Report Text: KPDK 230253Z 09003KT 10SM OVC029 11/M04 A3025 RMK AO2 SLP248 T01111039 58006
Loading
Personal Weather Stations






























Interactive Weather Map New forecast layout! Learn more

10-Day Weather Forecast

Advertisements
Track Severe Weather on mobile